sensor_id;sensor_type;location;lat;lon;timestamp;P1;durP1;ratioP1;P2;durP2;ratioP2
22715;SDS011;11525;51.152;4.456;2023-02-15T00:00:12;94.38;;;52.80;;
22715;SDS011;11525;51.152;4.456;2023-02-15T00:02:39;93.18;;;51.50;;
22715;SDS011;11525;51.152;4.456;2023-02-15T00:05:05;94.63;;;52.65;;
22715;SDS011;11525;51.152;4.456;2023-02-15T00:07:31;90.47;;;50.50;;
22715;SDS011;11525;51.152;4.456;2023-02-15T00:09:58;90.63;;;51.72;;
22715;SDS011;11525;51.152;4.456;2023-02-15T00:12:24;93.82;;;51.78;;
22715;SDS011;11525;51.152;4.456;2023-02-15T00:14:50;91.90;;;50.58;;
22715;SDS011;11525;51.152;4.456;2023-02-15T00:17:16;91.72;;;51.95;;
22715;SDS011;11525;51.152;4.456;2023-02-15T00:19:41;85.32;;;50.38;;
22715;SDS011;11525;51.152;4.456;2023-02-15T00:22:07;91.13;;;51.90;;
22715;SDS011;11525;51.152;4.456;2023-02-15T00:24:33;96.30;;;51.80;;
22715;SDS011;11525;51.152;4.456;2023-02-15T00:26:59;91.25;;;51.75;;
22715;SDS011;11525;51.152;4.456;2023-02-15T00:29:25;96.70;;;53.53;;
22715;SDS011;11525;51.152;4.456;2023-02-15T00:31:51;90.20;;;52.60;;
22715;SDS011;11525;51.152;4.456;2023-02-15T00:34:21;94.97;;;55.33;;
22715;SDS011;11525;51.152;4.456;2023-02-15T00:36:48;97.60;;;55.00;;
22715;SDS011;11525;51.152;4.456;2023-02-15T00:39:15;85.35;;;51.10;;
22715;SDS011;11525;51.152;4.456;2023-02-15T00:41:41;90.00;;;52.60;;
22715;SDS011;11525;51.152;4.456;2023-02-15T00:44:07;88.13;;;50.97;;
22715;SDS011;11525;51.152;4.456;2023-02-15T00:46:33;93.43;;;50.08;;
22715;SDS011;11525;51.152;4.456;2023-02-15T00:49:00;90.13;;;53.38;;
22715;SDS011;11525;51.152;4.456;2023-02-15T00:51:26;85.40;;;50.55;;
22715;SDS011;11525;51.152;4.456;2023-02-15T00:53:52;94.45;;;52.10;;
22715;SDS011;11525;51.152;4.456;2023-02-15T00:56:18;95.75;;;54.00;;
22715;SDS011;11525;51.152;4.456;2023-02-15T00:58:44;93.60;;;52.33;;
22715;SDS011;11525;51.152;4.456;2023-02-15T01:01:11;89.75;;;55.65;;
22715;SDS011;11525;51.152;4.456;2023-02-15T01:03:38;89.30;;;50.60;;
22715;SDS011;11525;51.152;4.456;2023-02-15T01:06:06;80.53;;;46.88;;
22715;SDS011;11525;51.152;4.456;2023-02-15T01:08:33;87.03;;;48.17;;
22715;SDS011;11525;51.152;4.456;2023-02-15T01:11:05;92.05;;;53.17;;
22715;SDS011;11525;51.152;4.456;2023-02-15T01:13:34;85.68;;;51.05;;
22715;SDS011;11525;51.152;4.456;2023-02-15T01:16:00;85.97;;;50.45;;
22715;SDS011;11525;51.152;4.456;2023-02-15T01:18:26;92.22;;;52.63;;
22715;SDS011;11525;51.152;4.456;2023-02-15T01:20:52;96.13;;;52.78;;
22715;SDS011;11525;51.152;4.456;2023-02-15T01:23:17;100.97;;;55.15;;
22715;SDS011;11525;51.152;4.456;2023-02-15T01:25:43;88.57;;;53.33;;
22715;SDS011;11525;51.152;4.456;2023-02-15T01:28:09;83.20;;;48.97;;
22715;SDS011;11525;51.152;4.456;2023-02-15T01:30:36;88.32;;;51.88;;
22715;SDS011;11525;51.152;4.456;2023-02-15T01:33:02;89.60;;;52.97;;
22715;SDS011;11525;51.152;4.456;2023-02-15T01:35:28;83.65;;;49.90;;
22715;SDS011;11525;51.152;4.456;2023-02-15T01:37:54;80.55;;;47.90;;
22715;SDS011;11525;51.152;4.456;2023-02-15T01:40:20;92.93;;;52.97;;
22715;SDS011;11525;51.152;4.456;2023-02-15T01:42:49;93.00;;;53.03;;
22715;SDS011;11525;51.152;4.456;2023-02-15T01:47:51;90.88;;;51.63;;
22715;SDS011;11525;51.152;4.456;2023-02-15T01:50:31;80.28;;;49.03;;
22715;SDS011;11525;51.152;4.456;2023-02-15T01:56:03;93.60;;;53.08;;
22715;SDS011;11525;51.152;4.456;2023-02-15T01:58:31;84.57;;;50.08;;
22715;SDS011;11525;51.152;4.456;2023-02-15T02:00:59;91.78;;;51.42;;
22715;SDS011;11525;51.152;4.456;2023-02-15T02:06:41;90.47;;;51.03;;
22715;SDS011;11525;51.152;4.456;2023-02-15T02:09:09;83.65;;;49.33;;
22715;SDS011;11525;51.152;4.456;2023-02-15T02:11:35;89.75;;;51.58;;
22715;SDS011;11525;51.152;4.456;2023-02-15T02:14:11;102.25;;;59.22;;
22715;SDS011;11525;51.152;4.456;2023-02-15T02:27:30;94.82;;;53.53;;
22715;SDS011;11525;51.152;4.456;2023-02-15T02:36:04;101.68;;;54.20;;
22715;SDS011;11525;51.152;4.456;2023-02-15T02:39:02;97.68;;;53.75;;
22715;SDS011;11525;51.152;4.456;2023-02-15T02:41:45;98.38;;;55.05;;
22715;SDS011;11525;51.152;4.456;2023-02-15T02:44:25;98.85;;;56.83;;
22715;SDS011;11525;51.152;4.456;2023-02-15T02:47:14;95.10;;;54.67;;
22715;SDS011;11525;51.152;4.456;2023-02-15T02:49:42;92.88;;;54.05;;
22715;SDS011;11525;51.152;4.456;2023-02-15T02:55:17;91.80;;;52.80;;
22715;SDS011;11525;51.152;4.456;2023-02-15T02:57:52;88.60;;;53.53;;
22715;SDS011;11525;51.152;4.456;2023-02-15T03:00:25;98.70;;;54.88;;
22715;SDS011;11525;51.152;4.456;2023-02-15T03:02:59;111.45;;;60.55;;
22715;SDS011;11525;51.152;4.456;2023-02-15T03:05:30;108.90;;;58.67;;
22715;SDS011;11525;51.152;4.456;2023-02-15T03:07:58;111.57;;;58.58;;
22715;SDS011;11525;51.152;4.456;2023-02-15T03:10:31;110.55;;;61.22;;
22715;SDS011;11525;51.152;4.456;2023-02-15T03:12:59;115.10;;;61.58;;
22715;SDS011;11525;51.152;4.456;2023-02-15T03:15:26;115.43;;;59.50;;
22715;SDS011;11525;51.152;4.456;2023-02-15T03:18:20;107.75;;;55.60;;
22715;SDS011;11525;51.152;4.456;2023-02-15T03:20:50;106.72;;;60.45;;
22715;SDS011;11525;51.152;4.456;2023-02-15T03:23:18;104.20;;;56.75;;
22715;SDS011;11525;51.152;4.456;2023-02-15T03:26:09;102.28;;;56.53;;
22715;SDS011;11525;51.152;4.456;2023-02-15T03:28:37;97.63;;;57.33;;
22715;SDS011;11525;51.152;4.456;2023-02-15T03:31:08;116.10;;;63.95;;
22715;SDS011;11525;51.152;4.456;2023-02-15T03:33:37;105.93;;;59.55;;
22715;SDS011;11525;51.152;4.456;2023-02-15T03:36:43;110.97;;;59.15;;
22715;SDS011;11525;51.152;4.456;2023-02-15T03:39:13;104.95;;;59.92;;
22715;SDS011;11525;51.152;4.456;2023-02-15T03:41:58;112.88;;;61.50;;
22715;SDS011;11525;51.152;4.456;2023-02-15T03:44:31;105.18;;;58.58;;
22715;SDS011;11525;51.152;4.456;2023-02-15T03:47:05;102.38;;;56.55;;
22715;SDS011;11525;51.152;4.456;2023-02-15T03:49:53;109.82;;;60.92;;
22715;SDS011;11525;51.152;4.456;2023-02-15T03:52:52;98.90;;;57.28;;
22715;SDS011;11525;51.152;4.456;2023-02-15T03:55:20;104.57;;;59.22;;
22715;SDS011;11525;51.152;4.456;2023-02-15T03:57:46;96.75;;;54.78;;
22715;SDS011;11525;51.152;4.456;2023-02-15T04:00:30;104.05;;;57.63;;
22715;SDS011;11525;51.152;4.456;2023-02-15T04:03:33;106.68;;;57.83;;
22715;SDS011;11525;51.152;4.456;2023-02-15T04:06:05;103.50;;;56.30;;
22715;SDS011;11525;51.152;4.456;2023-02-15T04:08:31;108.40;;;58.42;;
22715;SDS011;11525;51.152;4.456;2023-02-15T04:11:15;109.70;;;57.25;;
22715;SDS011;11525;51.152;4.456;2023-02-15T04:13:42;107.07;;;57.97;;
22715;SDS011;11525;51.152;4.456;2023-02-15T04:16:08;109.45;;;59.60;;
22715;SDS011;11525;51.152;4.456;2023-02-15T04:18:38;104.65;;;58.42;;
22715;SDS011;11525;51.152;4.456;2023-02-15T04:21:24;89.18;;;51.95;;
22715;SDS011;11525;51.152;4.456;2023-02-15T04:24:10;100.85;;;55.38;;
22715;SDS011;11525;51.152;4.456;2023-02-15T04:26:55;100.30;;;52.70;;
22715;SDS011;11525;51.152;4.456;2023-02-15T04:29:21;97.45;;;52.20;;
22715;SDS011;11525;51.152;4.456;2023-02-15T04:31:48;102.82;;;54.63;;
22715;SDS011;11525;51.152;4.456;2023-02-15T04:34:14;111.43;;;58.47;;
22715;SDS011;11525;51.152;4.456;2023-02-15T04:36:40;93.70;;;53.83;;
22715;SDS011;11525;51.152;4.456;2023-02-15T04:39:07;105.85;;;55.13;;
22715;SDS011;11525;51.152;4.456;2023-02-15T04:41:33;112.57;;;57.42;;
22715;SDS011;11525;51.152;4.456;2023-02-15T04:43:59;103.45;;;57.25;;
22715;SDS011;11525;51.152;4.456;2023-02-15T04:46:26;87.03;;;50.92;;
22715;SDS011;11525;51.152;4.456;2023-02-15T04:48:53;92.95;;;54.00;;
22715;SDS011;11525;51.152;4.456;2023-02-15T04:51:19;94.30;;;51.15;;
22715;SDS011;11525;51.152;4.456;2023-02-15T04:53:44;91.18;;;52.08;;
22715;SDS011;11525;51.152;4.456;2023-02-15T04:56:10;90.38;;;52.60;;
22715;SDS011;11525;51.152;4.456;2023-02-15T04:58:36;101.07;;;53.97;;
22715;SDS011;11525;51.152;4.456;2023-02-15T05:01:05;107.60;;;58.25;;
22715;SDS011;11525;51.152;4.456;2023-02-15T05:03:32;103.15;;;55.72;;
22715;SDS011;11525;51.152;4.456;2023-02-15T05:05:57;100.88;;;56.28;;
22715;SDS011;11525;51.152;4.456;2023-02-15T05:08:23;99.85;;;50.85;;
22715;SDS011;11525;51.152;4.456;2023-02-15T05:10:49;105.70;;;56.72;;
22715;SDS011;11525;51.152;4.456;2023-02-15T05:13:15;98.72;;;51.72;;
22715;SDS011;11525;51.152;4.456;2023-02-15T05:15:45;106.65;;;56.40;;
22715;SDS011;11525;51.152;4.456;2023-02-15T05:18:15;108.03;;;57.22;;
22715;SDS011;11525;51.152;4.456;2023-02-15T05:20:42;107.78;;;58.80;;
22715;SDS011;11525;51.152;4.456;2023-02-15T05:23:08;115.10;;;59.08;;
22715;SDS011;11525;51.152;4.456;2023-02-15T05:25:33;103.97;;;57.15;;
22715;SDS011;11525;51.152;4.456;2023-02-15T05:28:18;108.45;;;56.33;;
22715;SDS011;11525;51.152;4.456;2023-02-15T05:30:50;105.50;;;56.10;;
22715;SDS011;11525;51.152;4.456;2023-02-15T05:33:25;103.07;;;55.53;;
22715;SDS011;11525;51.152;4.456;2023-02-15T05:35:51;100.60;;;53.78;;
22715;SDS011;11525;51.152;4.456;2023-02-15T05:38:17;102.05;;;56.40;;
22715;SDS011;11525;51.152;4.456;2023-02-15T05:40:43;98.22;;;54.25;;
22715;SDS011;11525;51.152;4.456;2023-02-15T05:43:08;105.18;;;57.20;;
22715;SDS011;11525;51.152;4.456;2023-02-15T05:45:34;102.53;;;56.40;;
22715;SDS011;11525;51.152;4.456;2023-02-15T05:48:00;99.00;;;53.92;;
22715;SDS011;11525;51.152;4.456;2023-02-15T05:50:26;99.88;;;55.72;;
22715;SDS011;11525;51.152;4.456;2023-02-15T05:52:52;96.10;;;53.40;;
22715;SDS011;11525;51.152;4.456;2023-02-15T05:55:18;102.13;;;55.28;;
22715;SDS011;11525;51.152;4.456;2023-02-15T05:57:44;91.22;;;51.30;;
22715;SDS011;11525;51.152;4.456;2023-02-15T06:00:10;93.55;;;52.55;;
22715;SDS011;11525;51.152;4.456;2023-02-15T06:02:37;92.13;;;50.15;;
22715;SDS011;11525;51.152;4.456;2023-02-15T06:05:04;96.65;;;52.75;;
22715;SDS011;11525;51.152;4.456;2023-02-15T06:07:30;94.28;;;54.17;;
22715;SDS011;11525;51.152;4.456;2023-02-15T06:09:56;92.82;;;53.20;;
22715;SDS011;11525;51.152;4.456;2023-02-15T06:12:21;101.55;;;55.35;;
22715;SDS011;11525;51.152;4.456;2023-02-15T06:14:47;87.80;;;53.85;;
22715;SDS011;11525;51.152;4.456;2023-02-15T06:17:13;89.85;;;52.90;;
22715;SDS011;11525;51.152;4.456;2023-02-15T06:19:39;106.35;;;52.80;;
22715;SDS011;11525;51.152;4.456;2023-02-15T06:22:05;94.00;;;53.50;;
22715;SDS011;11525;51.152;4.456;2023-02-15T06:24:31;91.28;;;47.63;;
22715;SDS011;11525;51.152;4.456;2023-02-15T06:26:57;95.70;;;51.75;;
22715;SDS011;11525;51.152;4.456;2023-02-15T06:29:23;97.50;;;53.85;;
22715;SDS011;11525;51.152;4.456;2023-02-15T06:31:49;96.15;;;53.60;;
22715;SDS011;11525;51.152;4.456;2023-02-15T06:34:15;90.95;;;51.65;;
22715;SDS011;11525;51.152;4.456;2023-02-15T06:36:41;96.68;;;54.00;;
22715;SDS011;11525;51.152;4.456;2023-02-15T06:39:06;93.78;;;51.05;;
22715;SDS011;11525;51.152;4.456;2023-02-15T06:41:32;90.93;;;51.92;;
22715;SDS011;11525;51.152;4.456;2023-02-15T06:43:58;87.45;;;49.28;;
22715;SDS011;11525;51.152;4.456;2023-02-15T06:46:24;101.88;;;53.90;;
22715;SDS011;11525;51.152;4.456;2023-02-15T06:48:50;98.05;;;52.67;;
22715;SDS011;11525;51.152;4.456;2023-02-15T06:51:15;90.95;;;50.75;;
22715;SDS011;11525;51.152;4.456;2023-02-15T06:53:41;91.53;;;51.75;;
22715;SDS011;11525;51.152;4.456;2023-02-15T06:56:08;96.40;;;53.10;;
22715;SDS011;11525;51.152;4.456;2023-02-15T06:58:35;98.05;;;52.25;;
22715;SDS011;11525;51.152;4.456;2023-02-15T07:01:01;94.53;;;52.60;;
22715;SDS011;11525;51.152;4.456;2023-02-15T07:03:28;98.60;;;53.65;;
22715;SDS011;11525;51.152;4.456;2023-02-15T07:05:57;98.75;;;51.78;;
22715;SDS011;11525;51.152;4.456;2023-02-15T07:08:24;93.38;;;52.60;;
22715;SDS011;11525;51.152;4.456;2023-02-15T07:10:51;97.68;;;52.80;;
22715;SDS011;11525;51.152;4.456;2023-02-15T07:13:18;91.90;;;49.88;;
22715;SDS011;11525;51.152;4.456;2023-02-15T07:15:44;100.93;;;53.13;;
22715;SDS011;11525;51.152;4.456;2023-02-15T07:18:13;98.70;;;53.33;;
22715;SDS011;11525;51.152;4.456;2023-02-15T07:20:39;89.78;;;42.80;;
22715;SDS011;11525;51.152;4.456;2023-02-15T07:23:07;93.45;;;50.40;;
22715;SDS011;11525;51.152;4.456;2023-02-15T07:25:33;79.55;;;41.00;;
22715;SDS011;11525;51.152;4.456;2023-02-15T07:28:03;89.28;;;45.10;;
22715;SDS011;11525;51.152;4.456;2023-02-15T07:30:29;95.68;;;52.65;;
22715;SDS011;11525;51.152;4.456;2023-02-15T07:32:58;94.03;;;51.88;;
22715;SDS011;11525;51.152;4.456;2023-02-15T07:35:49;78.05;;;41.83;;
22715;SDS011;11525;51.152;4.456;2023-02-15T07:38:15;78.55;;;42.40;;
22715;SDS011;11525;51.152;4.456;2023-02-15T07:40:41;83.97;;;42.53;;
22715;SDS011;11525;51.152;4.456;2023-02-15T07:43:07;81.75;;;44.38;;
22715;SDS011;11525;51.152;4.456;2023-02-15T07:45:33;81.20;;;42.92;;
22715;SDS011;11525;51.152;4.456;2023-02-15T07:48:02;84.18;;;42.33;;
22715;SDS011;11525;51.152;4.456;2023-02-15T07:50:29;88.03;;;41.85;;
22715;SDS011;11525;51.152;4.456;2023-02-15T07:52:55;69.00;;;40.15;;
22715;SDS011;11525;51.152;4.456;2023-02-15T07:55:21;82.07;;;41.47;;
22715;SDS011;11525;51.152;4.456;2023-02-15T07:57:47;74.03;;;40.58;;
22715;SDS011;11525;51.152;4.456;2023-02-15T08:00:15;79.32;;;40.13;;
22715;SDS011;11525;51.152;4.456;2023-02-15T08:02:49;72.25;;;38.78;;
22715;SDS011;11525;51.152;4.456;2023-02-15T08:05:37;75.25;;;39.30;;
22715;SDS011;11525;51.152;4.456;2023-02-15T08:08:05;78.40;;;38.70;;
22715;SDS011;11525;51.152;4.456;2023-02-15T08:10:32;65.93;;;35.80;;
22715;SDS011;11525;51.152;4.456;2023-02-15T08:13:20;70.47;;;35.45;;
22715;SDS011;11525;51.152;4.456;2023-02-15T08:15:49;65.97;;;35.47;;
22715;SDS011;11525;51.152;4.456;2023-02-15T08:18:15;69.13;;;36.33;;
22715;SDS011;11525;51.152;4.456;2023-02-15T08:20:41;57.63;;;33.42;;
22715;SDS011;11525;51.152;4.456;2023-02-15T08:23:07;65.03;;;34.78;;
22715;SDS011;11525;51.152;4.456;2023-02-15T08:25:33;67.72;;;35.53;;
22715;SDS011;11525;51.152;4.456;2023-02-15T08:27:59;64.38;;;34.30;;
22715;SDS011;11525;51.152;4.456;2023-02-15T08:30:24;63.45;;;35.05;;
22715;SDS011;11525;51.152;4.456;2023-02-15T08:32:50;63.78;;;34.42;;
22715;SDS011;11525;51.152;4.456;2023-02-15T08:35:16;63.65;;;36.33;;
22715;SDS011;11525;51.152;4.456;2023-02-15T08:37:42;59.35;;;34.22;;
22715;SDS011;11525;51.152;4.456;2023-02-15T08:40:08;60.05;;;33.97;;
22715;SDS011;11525;51.152;4.456;2023-02-15T08:42:34;67.50;;;35.80;;
22715;SDS011;11525;51.152;4.456;2023-02-15T08:45:00;60.38;;;35.33;;
22715;SDS011;11525;51.152;4.456;2023-02-15T08:47:25;56.53;;;34.78;;
22715;SDS011;11525;51.152;4.456;2023-02-15T08:49:51;57.08;;;35.15;;
22715;SDS011;11525;51.152;4.456;2023-02-15T08:52:17;61.00;;;36.92;;
22715;SDS011;11525;51.152;4.456;2023-02-15T08:54:43;56.40;;;34.30;;
22715;SDS011;11525;51.152;4.456;2023-02-15T08:57:09;57.10;;;34.53;;
22715;SDS011;11525;51.152;4.456;2023-02-15T08:59:35;64.28;;;36.75;;
22715;SDS011;11525;51.152;4.456;2023-02-15T09:02:01;57.65;;;37.05;;
22715;SDS011;11525;51.152;4.456;2023-02-15T09:04:28;57.25;;;35.38;;
22715;SDS011;11525;51.152;4.456;2023-02-15T09:06:53;54.17;;;35.95;;
22715;SDS011;11525;51.152;4.456;2023-02-15T09:09:20;55.33;;;36.10;;
22715;SDS011;11525;51.152;4.456;2023-02-15T09:11:48;53.38;;;35.08;;
22715;SDS011;11525;51.152;4.456;2023-02-15T09:14:18;52.55;;;33.78;;
22715;SDS011;11525;51.152;4.456;2023-02-15T09:16:46;53.10;;;36.20;;
22715;SDS011;11525;51.152;4.456;2023-02-15T09:19:17;53.97;;;36.05;;
22715;SDS011;11525;51.152;4.456;2023-02-15T09:21:44;57.15;;;35.63;;
22715;SDS011;11525;51.152;4.456;2023-02-15T09:24:11;55.55;;;35.95;;
22715;SDS011;11525;51.152;4.456;2023-02-15T09:26:40;60.58;;;37.92;;
22715;SDS011;11525;51.152;4.456;2023-02-15T09:29:07;59.72;;;37.33;;
22715;SDS011;11525;51.152;4.456;2023-02-15T09:31:38;53.85;;;35.33;;
22715;SDS011;11525;51.152;4.456;2023-02-15T09:34:06;53.25;;;35.05;;
22715;SDS011;11525;51.152;4.456;2023-02-15T09:36:33;56.58;;;34.03;;
22715;SDS011;11525;51.152;4.456;2023-02-15T09:42:00;56.08;;;34.45;;
22715;SDS011;11525;51.152;4.456;2023-02-15T09:50:18;51.80;;;32.78;;
22715;SDS011;11525;51.152;4.456;2023-02-15T09:56:06;50.38;;;32.50;;
22715;SDS011;11525;51.152;4.456;2023-02-15T10:04:20;48.90;;;31.67;;
22715;SDS011;11525;51.152;4.456;2023-02-15T10:26:34;47.38;;;29.45;;
22715;SDS011;11525;51.152;4.456;2023-02-15T10:29:21;50.10;;;31.05;;
22715;SDS011;11525;51.152;4.456;2023-02-15T10:35:00;47.03;;;30.13;;
22715;SDS011;11525;51.152;4.456;2023-02-15T10:43:28;43.55;;;29.10;;
22715;SDS011;11525;51.152;4.456;2023-02-15T10:49:05;43.65;;;30.83;;
22715;SDS011;11525;51.152;4.456;2023-02-15T10:52:00;47.13;;;30.00;;
22715;SDS011;11525;51.152;4.456;2023-02-15T10:57:23;44.97;;;30.00;;
22715;SDS011;11525;51.152;4.456;2023-02-15T11:00:21;47.97;;;30.27;;
22715;SDS011;11525;51.152;4.456;2023-02-15T11:03:02;47.85;;;28.80;;
22715;SDS011;11525;51.152;4.456;2023-02-15T11:08:15;42.97;;;27.42;;
22715;SDS011;11525;51.152;4.456;2023-02-15T11:10:46;45.30;;;27.88;;
22715;SDS011;11525;51.152;4.456;2023-02-15T11:13:17;50.95;;;27.55;;
22715;SDS011;11525;51.152;4.456;2023-02-15T11:15:49;49.53;;;29.38;;
22715;SDS011;11525;51.152;4.456;2023-02-15T11:21:50;47.40;;;28.52;;
22715;SDS011;11525;51.152;4.456;2023-02-15T11:24:17;54.33;;;28.98;;
22715;SDS011;11525;51.152;4.456;2023-02-15T11:26:54;44.60;;;27.90;;
22715;SDS011;11525;51.152;4.456;2023-02-15T11:32:31;46.50;;;28.15;;
22715;SDS011;11525;51.152;4.456;2023-02-15T11:40:35;45.28;;;27.33;;
22715;SDS011;11525;51.152;4.456;2023-02-15T11:43:41;53.55;;;29.98;;
22715;SDS011;11525;51.152;4.456;2023-02-15T11:46:13;53.03;;;29.60;;
22715;SDS011;11525;51.152;4.456;2023-02-15T11:48:39;45.88;;;27.92;;
22715;SDS011;11525;51.152;4.456;2023-02-15T11:51:20;46.78;;;29.25;;
22715;SDS011;11525;51.152;4.456;2023-02-15T11:53:47;47.75;;;28.67;;
22715;SDS011;11525;51.152;4.456;2023-02-15T11:56:14;49.33;;;28.20;;
22715;SDS011;11525;51.152;4.456;2023-02-15T11:58:44;49.90;;;28.35;;
22715;SDS011;11525;51.152;4.456;2023-02-15T12:01:20;50.67;;;29.52;;
22715;SDS011;11525;51.152;4.456;2023-02-15T12:06:53;46.92;;;27.17;;
22715;SDS011;11525;51.152;4.456;2023-02-15T12:11:55;49.95;;;29.42;;
22715;SDS011;11525;51.152;4.456;2023-02-15T12:14:57;54.83;;;31.65;;
22715;SDS011;11525;51.152;4.456;2023-02-15T12:17:29;54.95;;;29.30;;
22715;SDS011;11525;51.152;4.456;2023-02-15T12:20:00;49.80;;;28.55;;
22715;SDS011;11525;51.152;4.456;2023-02-15T12:22:30;47.20;;;27.98;;
22715;SDS011;11525;51.152;4.456;2023-02-15T12:25:01;52.33;;;30.73;;
22715;SDS011;11525;51.152;4.456;2023-02-15T12:27:46;47.05;;;28.75;;
22715;SDS011;11525;51.152;4.456;2023-02-15T12:42:14;51.13;;;30.38;;
22715;SDS011;11525;51.152;4.456;2023-02-15T12:44:42;57.28;;;30.35;;
22715;SDS011;11525;51.152;4.456;2023-02-15T12:47:19;54.97;;;31.33;;
22715;SDS011;11525;51.152;4.456;2023-02-15T12:50:07;50.40;;;30.02;;
22715;SDS011;11525;51.152;4.456;2023-02-15T12:52:42;54.00;;;31.02;;
22715;SDS011;11525;51.152;4.456;2023-02-15T12:55:30;51.90;;;31.83;;
22715;SDS011;11525;51.152;4.456;2023-02-15T13:00:41;47.95;;;30.98;;
22715;SDS011;11525;51.152;4.456;2023-02-15T13:03:14;54.13;;;30.88;;
22715;SDS011;11525;51.152;4.456;2023-02-15T13:05:44;51.55;;;30.75;;
22715;SDS011;11525;51.152;4.456;2023-02-15T13:08:15;51.33;;;30.48;;
22715;SDS011;11525;51.152;4.456;2023-02-15T13:13:34;52.28;;;30.23;;
22715;SDS011;11525;51.152;4.456;2023-02-15T13:16:10;53.20;;;31.83;;
22715;SDS011;11525;51.152;4.456;2023-02-15T13:18:39;47.92;;;31.20;;
22715;SDS011;11525;51.152;4.456;2023-02-15T13:21:16;52.10;;;30.75;;
22715;SDS011;11525;51.152;4.456;2023-02-15T13:23:57;51.78;;;30.17;;
22715;SDS011;11525;51.152;4.456;2023-02-15T13:26:31;54.10;;;30.88;;
22715;SDS011;11525;51.152;4.456;2023-02-15T13:29:01;48.80;;;30.75;;
22715;SDS011;11525;51.152;4.456;2023-02-15T13:31:33;54.95;;;30.48;;
22715;SDS011;11525;51.152;4.456;2023-02-15T13:34:07;51.80;;;31.40;;
22715;SDS011;11525;51.152;4.456;2023-02-15T13:39:15;53.10;;;30.95;;
22715;SDS011;11525;51.152;4.456;2023-02-15T13:47:11;50.58;;;29.63;;
22715;SDS011;11525;51.152;4.456;2023-02-15T13:52:51;47.58;;;30.02;;
22715;SDS011;11525;51.152;4.456;2023-02-15T14:06:50;50.38;;;30.90;;
22715;SDS011;11525;51.152;4.456;2023-02-15T14:23:25;44.13;;;29.27;;
22715;SDS011;11525;51.152;4.456;2023-02-15T14:31:53;46.08;;;29.55;;
22715;SDS011;11525;51.152;4.456;2023-02-15T14:34:24;50.60;;;31.73;;
22715;SDS011;11525;51.152;4.456;2023-02-15T14:37:00;54.78;;;31.70;;
22715;SDS011;11525;51.152;4.456;2023-02-15T14:39:35;47.80;;;31.35;;
22715;SDS011;11525;51.152;4.456;2023-02-15T14:46:03;49.13;;;31.27;;
22715;SDS011;11525;51.152;4.456;2023-02-15T14:50:50;56.03;;;32.05;;
22715;SDS011;11525;51.152;4.456;2023-02-15T15:01:28;53.28;;;30.55;;
22715;SDS011;11525;51.152;4.456;2023-02-15T15:04:09;48.58;;;29.98;;
22715;SDS011;11525;51.152;4.456;2023-02-15T15:06:40;52.33;;;30.48;;
22715;SDS011;11525;51.152;4.456;2023-02-15T15:09:19;55.67;;;31.65;;
22715;SDS011;11525;51.152;4.456;2023-02-15T15:11:51;55.13;;;32.95;;
22715;SDS011;11525;51.152;4.456;2023-02-15T15:16:57;51.30;;;32.13;;
22715;SDS011;11525;51.152;4.456;2023-02-15T15:22:16;52.08;;;33.15;;
22715;SDS011;11525;51.152;4.456;2023-02-15T15:25:00;51.40;;;30.42;;
22715;SDS011;11525;51.152;4.456;2023-02-15T15:27:45;51.28;;;32.38;;
22715;SDS011;11525;51.152;4.456;2023-02-15T15:49:34;48.35;;;29.73;;
22715;SDS011;11525;51.152;4.456;2023-02-15T15:52:07;50.13;;;30.20;;
22715;SDS011;11525;51.152;4.456;2023-02-15T15:54:44;48.33;;;29.45;;
22715;SDS011;11525;51.152;4.456;2023-02-15T15:57:35;48.38;;;29.92;;
22715;SDS011;11525;51.152;4.456;2023-02-15T16:00:03;51.85;;;30.42;;
22715;SDS011;11525;51.152;4.456;2023-02-15T16:02:50;50.13;;;30.73;;
22715;SDS011;11525;51.152;4.456;2023-02-15T16:05:16;48.92;;;31.30;;
22715;SDS011;11525;51.152;4.456;2023-02-15T16:07:42;53.83;;;33.22;;
22715;SDS011;11525;51.152;4.456;2023-02-15T16:10:19;51.22;;;31.70;;
22715;SDS011;11525;51.152;4.456;2023-02-15T16:12:47;53.03;;;33.38;;
22715;SDS011;11525;51.152;4.456;2023-02-15T16:15:16;45.80;;;28.95;;
22715;SDS011;11525;51.152;4.456;2023-02-15T16:17:45;51.22;;;31.45;;
22715;SDS011;11525;51.152;4.456;2023-02-15T16:20:15;51.30;;;31.17;;
22715;SDS011;11525;51.152;4.456;2023-02-15T16:22:44;51.72;;;31.85;;
22715;SDS011;11525;51.152;4.456;2023-02-15T16:25:30;52.58;;;30.98;;
22715;SDS011;11525;51.152;4.456;2023-02-15T16:28:06;51.65;;;29.67;;
22715;SDS011;11525;51.152;4.456;2023-02-15T16:30:34;49.80;;;30.15;;
22715;SDS011;11525;51.152;4.456;2023-02-15T16:33:08;54.45;;;32.20;;
22715;SDS011;11525;51.152;4.456;2023-02-15T16:35:52;41.50;;;26.23;;
22715;SDS011;11525;51.152;4.456;2023-02-15T16:41:07;53.47;;;31.17;;
22715;SDS011;11525;51.152;4.456;2023-02-15T16:43:42;56.08;;;31.95;;
22715;SDS011;11525;51.152;4.456;2023-02-15T16:46:12;51.72;;;31.83;;
22715;SDS011;11525;51.152;4.456;2023-02-15T16:48:45;54.10;;;30.27;;
22715;SDS011;11525;51.152;4.456;2023-02-15T16:51:22;57.88;;;32.05;;
22715;SDS011;11525;51.152;4.456;2023-02-15T16:53:51;54.03;;;31.55;;
22715;SDS011;11525;51.152;4.456;2023-02-15T16:56:22;50.00;;;29.48;;
22715;SDS011;11525;51.152;4.456;2023-02-15T16:58:53;54.28;;;31.10;;
22715;SDS011;11525;51.152;4.456;2023-02-15T17:01:20;50.50;;;29.40;;
22715;SDS011;11525;51.152;4.456;2023-02-15T17:03:49;55.65;;;31.75;;
22715;SDS011;11525;51.152;4.456;2023-02-15T17:06:34;55.05;;;28.92;;
22715;SDS011;11525;51.152;4.456;2023-02-15T17:09:13;51.55;;;27.80;;
22715;SDS011;11525;51.152;4.456;2023-02-15T17:11:47;49.13;;;28.15;;
22715;SDS011;11525;51.152;4.456;2023-02-15T17:14:13;60.83;;;31.67;;
22715;SDS011;11525;51.152;4.456;2023-02-15T17:19:23;52.47;;;31.25;;
22715;SDS011;11525;51.152;4.456;2023-02-15T17:21:56;48.55;;;29.30;;
22715;SDS011;11525;51.152;4.456;2023-02-15T17:24:39;45.65;;;26.77;;
22715;SDS011;11525;51.152;4.456;2023-02-15T17:27:26;49.08;;;28.10;;
22715;SDS011;11525;51.152;4.456;2023-02-15T17:29:59;50.13;;;27.73;;
22715;SDS011;11525;51.152;4.456;2023-02-15T17:32:28;54.90;;;30.58;;
22715;SDS011;11525;51.152;4.456;2023-02-15T17:38:00;50.95;;;29.10;;
22715;SDS011;11525;51.152;4.456;2023-02-15T17:40:45;50.60;;;29.33;;
22715;SDS011;11525;51.152;4.456;2023-02-15T17:43:12;54.42;;;30.00;;
22715;SDS011;11525;51.152;4.456;2023-02-15T17:45:40;61.33;;;32.25;;
22715;SDS011;11525;51.152;4.456;2023-02-15T17:48:15;55.58;;;30.63;;
22715;SDS011;11525;51.152;4.456;2023-02-15T17:50:56;59.25;;;31.80;;
22715;SDS011;11525;51.152;4.456;2023-02-15T17:53:23;51.92;;;32.22;;
22715;SDS011;11525;51.152;4.456;2023-02-15T17:55:50;57.70;;;32.95;;
22715;SDS011;11525;51.152;4.456;2023-02-15T17:58:16;58.25;;;32.22;;
22715;SDS011;11525;51.152;4.456;2023-02-15T18:00:44;53.47;;;30.77;;
22715;SDS011;11525;51.152;4.456;2023-02-15T18:03:38;51.70;;;30.15;;
22715;SDS011;11525;51.152;4.456;2023-02-15T18:06:30;54.60;;;31.98;;
22715;SDS011;11525;51.152;4.456;2023-02-15T18:09:16;59.22;;;33.03;;